This is the latest recevied weather packets stored in our database for station/object W1BKW. If no packets are shown the sender has not sent any weather packets the latest 10 day(s).
| Time | Temp. | Humidity | Pressure | Rain* | Wind** | Luminosity | Snow |
|---|---|---|---|---|---|---|---|
| 1777646749 | 8.33° C | 62% | 1007.4 hPa | 0 mm | - | 758 W/m² | - |
| 1777645844 | 9.44° C | 67% | 1007.1 hPa | 0 mm | - | 569 W/m² | - |
| 1777644938 | 8.33° C | 66% | 1007.2 hPa | 0 mm | - | 701 W/m² | - |
| 1777644034 | 8.33° C | 68% | 1007.1 hPa | 0 mm | - | 491 W/m² | - |
| 1777643131 | 8.33° C | 69% | 1007.2 hPa | 0 mm | - | 549 W/m² | - |
| 1777642226 | 7.78° C | 67% | 1007.1 hPa | 0 mm | - | 609 W/m² | - |
| 1777641326 | 7.78° C | 69% | 1006.9 hPa | 0 mm | - | 597 W/m² | - |
| 1777640421 | 7.22° C | 71% | 1007 hPa | 0 mm | - | 530 W/m² | - |
| 1777639518 | 6.67° C | 70% | 1007 hPa | 0 mm | - | 440 W/m² | - |
| 1777638612 | 7.22° C | 70% | 1006.8 hPa | 0 mm | - | 375 W/m² | - |
| 1777637708 | 6.67° C | 76% | 1006.8 hPa | 0 mm | - | 141 W/m² | - |
| 1777636803 | 6.11° C | 74% | 1006.7 hPa | 0 mm | - | 215 W/m² | - |
| 1777635902 | 6.11° C | 78% | 1007 hPa | 0 mm | - | 74 W/m² | - |
| 1777634998 | 6.11° C | 78% | 1006.6 hPa | 0 mm | - | 40 W/m² | - |
| 1777634095 | 6.67° C | 78% | 1006.5 hPa | 0 mm | - | 76 W/m² | - |
| 1777633192 | 6.11° C | 78% | 1006.6 hPa | 0 mm | - | 39 W/m² | - |
| 1777632288 | 6.11° C | 79% | 1006.5 hPa | 0 mm | - | 38 W/m² | - |
| 1777631386 | 6.11° C | 80% | 1006.3 hPa | 0 mm | - | 22 W/m² | - |
| 1777630481 | 6.11° C | 83% | 1006.2 hPa | 0 mm | - | 18 W/m² | - |
| 1777629579 | 6.11° C | 86% | 1006 hPa | 0 mm | - | 9 W/m² | - |
| 1777628674 | 6.11° C | 86% | 1005.6 hPa | 0 mm | - | 3 W/m² | - |
| 1777627772 | 6.67° C | 87% | 1005.4 hPa | 0 mm | - | 0 W/m² | - |
| 1777626871 | 6.67° C | 90% | 1005.4 hPa | 0 mm | - | 0 W/m² | - |
| 1777625966 | 6.67° C | 91% | 1005.3 hPa | 0 mm | - | 0 W/m² | - |
| 1777625061 | 6.67° C | 91% | 1005.1 hPa | 0 mm | - | 0 W/m² | - |
* Rain latest hour (hover to see other rain measurements)
** Current wind speed in m/s (hover to see current wind gust speed)